Time;durP1;ratioP1;P1;durP2;ratioP2;P2;SDS_P1;SDS_P2;PMS_P1;PMS_P2;Temp;Humidity;BMP_temperature;BMP_pressure;BME280_temperature;BME280_humidity;BME280_pressure;Samples;Min_cycle;Max_cycle;Signal;HPM_P1;HPM_P2
2024/01/30 00:01:43;;;;;;;6.17;5.60;;;7.90;95.50;;;;;;5046547;28;20472;-80
2024/01/30 00:04:12;;;;;;;7.40;6.70;;;7.80;95.50;;;;;;5046389;28;20570;-79
2024/01/30 00:06:40;;;;;;;7.00;6.30;;;7.70;95.50;;;;;;5046471;28;20444;-80
2024/01/30 00:09:08;;;;;;;10.17;6.50;;;7.80;98.70;;;;;;5043546;28;21045;-78
2024/01/30 00:11:37;;;;;;;6.80;6.20;;;7.80;96.10;;;;;;5035858;28;20577;-85
2024/01/30 00:14:05;;;;;;;7.03;5.80;;;7.80;97.70;;;;;;5044712;28;20483;-78
2024/01/30 00:16:33;;;;;;;6.70;6.20;;;7.80;98.90;;;;;;5038293;28;21306;-80
2024/01/30 00:19:03;;;;;;;6.03;5.43;;;7.80;97.40;;;;;;5042440;28;20464;-79
2024/01/30 00:21:31;;;;;;;7.97;5.67;;;7.70;98.90;;;;;;5054818;28;20472;-81
2024/01/30 00:23:59;;;;;;;7.17;5.70;;;7.70;99.90;;;;;;5040924;28;20470;-79
2024/01/30 00:26:28;;;;;;;6.53;5.67;;;7.80;99.90;;;;;;5041597;28;20444;-81
2024/01/30 00:28:56;;;;;;;5.73;5.20;;;7.90;99.90;;;;;;5040591;28;20447;-81
2024/01/30 00:31:24;;;;;;;6.07;5.50;;;7.70;99.90;;;;;;5039797;28;20543;-79
2024/01/30 00:33:52;;;;;;;6.83;6.13;;;7.70;99.90;;;;;;5043649;28;20479;-81
2024/01/30 00:36:21;;;;;;;5.23;4.83;;;7.70;99.90;;;;;;5042986;28;20454;-78
2024/01/30 00:38:50;;;;;;;5.37;4.83;;;7.70;99.90;;;;;;5044621;28;20539;-78
2024/01/30 00:41:19;;;;;;;6.07;5.10;;;7.90;99.90;;;;;;5046859;28;21931;-79
2024/01/30 00:43:47;;;;;;;6.03;5.50;;;7.90;99.90;;;;;;5044770;28;20492;-77
2024/01/30 00:46:15;;;;;;;6.27;4.87;;;7.90;98.70;;;;;;5039506;28;21009;-82
2024/01/30 00:48:43;;;;;;;5.87;5.30;;;7.80;98.60;;;;;;5036545;28;20987;-78
2024/01/30 00:51:11;;;;;;;5.43;4.83;;;7.70;99.70;;;;;;5039734;28;21221;-79
2024/01/30 00:53:41;;;;;;;7.03;6.17;;;7.80;99.90;;;;;;5040548;28;20476;-77
2024/01/30 00:56:09;;;;;;;6.47;5.17;;;7.80;99.10;;;;;;5037474;28;20491;-79
2024/01/30 00:58:38;;;;;;;5.33;4.80;;;7.70;99.40;;;;;;5038403;28;20962;-79
2024/01/30 01:01:07;;;;;;;8.37;7.27;;;7.70;99.90;;;;;;5039248;28;20478;-78
2024/01/30 01:03:35;;;;;;;6.67;5.17;;;7.70;99.60;;;;;;5042825;28;20462;-80
2024/01/30 01:06:04;;;;;;;6.90;6.30;;;7.70;99.90;;;;;;5042551;28;20460;-77
2024/01/30 01:08:32;;;;;;;6.60;6.00;;;7.60;99.90;;;;;;5040642;28;20456;-81
2024/01/30 01:11:03;;;;;;;6.23;5.63;;;7.50;99.90;;;;;;5038332;28;20557;-79
2024/01/30 01:13:31;;;;;;;6.60;5.87;;;7.60;99.90;;;;;;5032783;28;20484;-79
2024/01/30 01:15:59;;;;;;;6.10;5.50;;;7.40;99.90;;;;;;5041805;28;20581;-82
2024/01/30 01:18:28;;;;;;;5.70;5.10;;;7.40;99.90;;;;;;5040716;28;20460;-79
2024/01/30 01:20:56;;;;;;;6.80;6.00;;;7.50;99.90;;;;;;5041344;28;20472;-78
2024/01/30 01:23:24;;;;;;;5.80;5.30;;;7.40;99.90;;;;;;5041078;28;20441;-79
2024/01/30 01:25:52;;;;;;;6.70;6.10;;;7.40;99.90;;;;;;5040070;28;20452;-80
2024/01/30 01:28:22;;;;;;;6.27;5.63;;;7.40;99.90;;;;;;5042925;28;20447;-80
2024/01/30 01:30:50;;;;;;;6.30;5.77;;;7.50;99.90;;;;;;5041936;28;21021;-78
2024/01/30 01:33:18;;;;;;;7.20;5.83;;;7.40;99.90;;;;;;5042653;28;20534;-83
2024/01/30 01:35:46;;;;;;;6.63;6.03;;;7.30;99.90;;;;;;5041155;28;20544;-80
2024/01/30 01:38:14;;;;;;;6.03;5.33;;;7.30;99.90;;;;;;5040255;28;20474;-79
2024/01/30 01:40:43;;;;;;;5.33;4.93;;;7.30;99.90;;;;;;5037941;28;20482;-80
2024/01/30 01:43:12;;;;;;;6.93;5.87;;;7.30;99.90;;;;;;5037748;28;20461;-79
2024/01/30 01:45:41;;;;;;;6.40;5.60;;;7.20;99.90;;;;;;5035568;28;20471;-79
2024/01/30 01:48:10;;;;;;;6.13;5.63;;;7.20;99.90;;;;;;5039745;28;20483;-77
2024/01/30 01:50:39;;;;;;;6.77;6.17;;;7.20;99.90;;;;;;5037259;28;20452;-78
2024/01/30 01:53:09;;;;;;;6.07;5.57;;;7.20;99.90;;;;;;5038852;28;21415;-78
2024/01/30 01:55:38;;;;;;;7.37;5.80;;;7.00;99.90;;;;;;5040755;28;20607;-78
2024/01/30 01:58:08;;;;;;;5.70;5.20;;;7.00;99.90;;;;;;5039992;28;21444;-82
2024/01/30 02:00:39;;;;;;;6.37;5.87;;;7.00;99.90;;;;;;5039400;28;20502;-83
2024/01/30 02:03:10;;;;;;;6.63;5.10;;;7.00;99.90;;;;;;5039646;28;20463;-79
2024/01/30 02:05:40;;;;;;;11.67;5.80;;;6.90;99.90;;;;;;5039549;28;20460;-80
2024/01/30 02:08:09;;;;;;;6.37;5.37;;;6.90;99.90;;;;;;5037625;28;20706;-79
2024/01/30 02:10:38;;;;;;;6.23;5.63;;;7.00;99.90;;;;;;5037832;28;20466;-81
2024/01/30 02:13:06;;;;;;;7.23;6.30;;;7.10;99.90;;;;;;5040491;28;20873;-80
2024/01/30 02:15:34;;;;;;;7.67;6.90;;;7.10;99.90;;;;;;5039802;28;20953;-78
2024/01/30 02:18:02;;;;;;;7.13;6.43;;;7.00;99.90;;;;;;5040549;28;20451;-79
2024/01/30 02:20:35;;;;;;;7.00;6.40;;;7.00;99.90;;;;;;5037349;28;20458;-79
2024/01/30 02:23:05;;;;;;;7.63;6.80;;;7.00;99.90;;;;;;5041906;28;20444;-78
2024/01/30 02:25:36;;;;;;;6.40;5.90;;;7.10;99.90;;;;;;5036503;28;20454;-82
2024/01/30 02:28:05;;;;;;;8.63;6.83;;;6.90;99.90;;;;;;5033801;28;20513;-82
2024/01/30 02:30:33;;;;;;;6.33;5.80;;;7.00;99.90;;;;;;5035290;28;20459;-78
2024/01/30 02:33:01;;;;;;;7.93;6.33;;;6.90;99.90;;;;;;5038445;28;21203;-78
2024/01/30 02:35:31;;;;;;;7.97;5.93;;;6.90;99.90;;;;;;5036936;28;20588;-79
2024/01/30 02:37:59;;;;;;;9.00;6.63;;;6.80;99.90;;;;;;5039275;28;20470;-78
2024/01/30 02:40:28;;;;;;;6.37;5.77;;;6.70;99.90;;;;;;5041294;28;20483;-80
2024/01/30 02:42:57;;;;;;;6.63;5.93;;;6.80;99.90;;;;;;5038927;28;20516;-79
2024/01/30 02:45:25;;;;;;;7.63;6.87;;;6.80;99.90;;;;;;5037998;28;21022;-80
2024/01/30 02:47:53;;;;;;;7.60;6.03;;;6.70;99.90;;;;;;5039325;28;20471;-79
2024/01/30 02:50:21;;;;;;;7.27;6.67;;;6.70;99.90;;;;;;5035723;28;20464;-79
2024/01/30 02:52:50;;;;;;;6.87;6.17;;;6.70;99.90;;;;;;5038419;28;20907;-78
2024/01/30 02:55:18;;;;;;;7.23;6.53;;;6.70;99.90;;;;;;5037748;28;20483;-77
2024/01/30 02:57:48;;;;;;;6.37;5.70;;;6.70;99.90;;;;;;5033048;28;20478;-78
2024/01/30 03:00:16;;;;;;;6.07;5.57;;;6.70;99.90;;;;;;5033069;28;20448;-78
2024/01/30 03:02:44;;;;;;;7.77;6.97;;;6.60;99.90;;;;;;5034061;28;20494;-80
2024/01/30 03:05:13;;;;;;;7.40;6.20;;;6.70;99.90;;;;;;5036683;28;20547;-80
2024/01/30 03:07:41;;;;;;;6.80;6.10;;;6.70;99.90;;;;;;5037179;28;20448;-80
2024/01/30 03:10:09;;;;;;;6.30;5.73;;;6.70;99.90;;;;;;5033997;28;20461;-80
2024/01/30 03:12:37;;;;;;;6.20;5.70;;;6.70;99.90;;;;;;5032387;28;20479;-78
2024/01/30 03:15:09;;;;;;;6.13;5.53;;;6.80;99.90;;;;;;5031643;28;20472;-80
2024/01/30 03:17:37;;;;;;;7.77;6.67;;;6.90;99.90;;;;;;5030851;28;20466;-78
2024/01/30 03:20:07;;;;;;;5.80;5.30;;;6.90;99.90;;;;;;5032939;28;20463;-78
2024/01/30 03:22:35;;;;;;;5.67;5.20;;;6.70;99.90;;;;;;5035270;28;20472;-79
2024/01/30 03:25:04;;;;;;;6.30;5.70;;;6.70;99.90;;;;;;5036443;28;21216;-81
2024/01/30 03:27:32;;;;;;;7.80;5.13;;;6.70;99.90;;;;;;5036510;28;20455;-78
2024/01/30 03:30:00;;;;;;;6.40;5.80;;;6.70;99.90;;;;;;5032818;28;20464;-79
2024/01/30 03:32:29;;;;;;;6.50;5.87;;;6.60;99.90;;;;;;5031911;28;20471;-79
2024/01/30 03:34:59;;;;;;;5.70;5.10;;;6.50;99.90;;;;;;5034230;28;20472;-78
2024/01/30 03:37:27;;;;;;;6.33;5.60;;;6.60;99.90;;;;;;5034350;28;20573;-78
2024/01/30 03:39:55;;;;;;;6.10;5.60;;;6.50;99.90;;;;;;5037783;28;20444;-79
2024/01/30 03:42:24;;;;;;;6.57;5.53;;;6.60;99.90;;;;;;5037263;28;20483;-80
2024/01/30 03:44:53;;;;;;;5.73;5.23;;;6.60;99.90;;;;;;5034844;28;20523;-80
2024/01/30 03:47:22;;;;;;;6.63;5.97;;;6.60;99.90;;;;;;5033310;28;20839;-82
2024/01/30 03:49:51;;;;;;;6.33;5.73;;;6.60;99.90;;;;;;5035903;28;20452;-80
2024/01/30 03:52:19;;;;;;;6.43;5.83;;;6.50;99.90;;;;;;5034638;28;20600;-79
2024/01/30 03:54:48;;;;;;;5.70;4.60;;;6.40;99.90;;;;;;5035883;28;20479;-79
2024/01/30 03:57:16;;;;;;;6.40;5.80;;;6.40;99.90;;;;;;5035293;28;20454;-80
2024/01/30 03:59:44;;;;;;;5.70;5.20;;;6.40;99.90;;;;;;5035002;28;20472;-79
2024/01/30 04:02:13;;;;;;;6.20;5.60;;;6.50;99.90;;;;;;5034884;28;20502;-78
2024/01/30 04:04:41;;;;;;;7.37;6.63;;;6.50;99.90;;;;;;5031942;28;20440;-78
2024/01/30 04:07:11;;;;;;;6.47;5.13;;;6.40;99.90;;;;;;5034698;28;20457;-79
2024/01/30 04:09:39;;;;;;;6.17;5.60;;;6.40;99.90;;;;;;5036193;28;20499;-80
2024/01/30 04:12:08;;;;;;;7.50;5.20;;;6.30;99.90;;;;;;5039067;28;20475;-77
2024/01/30 04:14:36;;;;;;;5.20;4.80;;;6.30;99.90;;;;;;5038303;28;20487;-78
2024/01/30 04:17:04;;;;;;;7.50;5.47;;;6.20;99.90;;;;;;5036840;28;20547;-80
2024/01/30 04:19:32;;;;;;;6.00;5.40;;;6.10;99.90;;;;;;5038556;28;20459;-80
2024/01/30 04:22:01;;;;;;;5.63;5.23;;;6.20;99.90;;;;;;5039212;28;20472;-80
2024/01/30 04:24:30;;;;;;;5.97;5.47;;;6.20;99.90;;;;;;5039854;28;20510;-79
2024/01/30 04:26:58;;;;;;;6.30;5.70;;;6.30;99.90;;;;;;5040545;28;20809;-80
2024/01/30 04:29:27;;;;;;;4.60;4.30;;;6.30;99.90;;;;;;5036616;28;20456;-78
2024/01/30 04:31:55;;;;;;;6.67;5.90;;;6.30;99.90;;;;;;5038241;28;20473;-79
2024/01/30 04:34:23;;;;;;;7.27;6.57;;;6.30;99.90;;;;;;5040520;28;20448;-78
2024/01/30 04:36:51;;;;;;;5.80;5.20;;;6.30;99.90;;;;;;5040875;28;20464;-78
2024/01/30 04:39:19;;;;;;;5.17;4.77;;;6.30;99.90;;;;;;5037966;28;20518;-81
2024/01/30 04:41:49;;;;;;;5.70;5.10;;;6.30;99.90;;;;;;5042888;28;20857;-77
2024/01/30 04:44:17;;;;;;;5.17;4.77;;;6.30;99.90;;;;;;5039786;28;20964;-80
2024/01/30 04:46:45;;;;;;;6.13;5.53;;;6.20;99.90;;;;;;5034891;28;20452;-76
2024/01/30 04:49:13;;;;;;;5.43;4.83;;;6.00;99.90;;;;;;5036766;28;20460;-76
2024/01/30 04:51:41;;;;;;;7.07;6.47;;;6.10;99.90;;;;;;5037153;28;20468;-76
2024/01/30 04:54:10;;;;;;;5.30;4.80;;;6.10;99.90;;;;;;5037489;28;20573;-77
2024/01/30 04:56:39;;;;;;;4.97;4.53;;;6.00;99.90;;;;;;5034508;28;20555;-77
2024/01/30 04:59:09;;;;;;;5.93;5.27;;;5.90;99.90;;;;;;5038666;28;20486;-83
2024/01/30 05:01:37;;;;;;;6.43;4.80;;;6.00;99.90;;;;;;5038329;28;20531;-77
2024/01/30 05:04:08;;;;;;;5.43;4.80;;;6.10;99.90;;;;;;5036426;28;20986;-84
2024/01/30 05:06:41;;;;;;;4.77;4.37;;;6.10;99.90;;;;;;5041893;28;20898;-77
2024/01/30 05:09:09;;;;;;;5.23;4.80;;;6.10;99.90;;;;;;5040478;28;20624;-77
2024/01/30 05:11:38;;;;;;;7.30;4.93;;;6.10;99.90;;;;;;5038927;28;20472;-80
2024/01/30 05:14:09;;;;;;;5.77;5.37;;;6.00;99.90;;;;;;5037014;28;20524;-79
2024/01/30 05:16:37;;;;;;;6.30;5.70;;;6.00;99.90;;;;;;5042153;28;20551;-78
2024/01/30 05:19:06;;;;;;;4.77;4.23;;;5.90;99.90;;;;;;5037326;28;20467;-79
2024/01/30 05:21:34;;;;;;;5.67;5.13;;;5.90;99.90;;;;;;5036390;28;20464;-78
2024/01/30 05:24:02;;;;;;;6.40;5.00;;;5.90;99.90;;;;;;5040810;28;20957;-77
2024/01/30 05:26:31;;;;;;;5.17;4.70;;;5.80;99.90;;;;;;5040243;28;20460;-80
2024/01/30 05:28:59;;;;;;;5.37;4.97;;;5.90;99.90;;;;;;5034488;28;22538;-82
2024/01/30 05:31:28;;;;;;;5.20;4.70;;;5.80;99.90;;;;;;5036652;28;20472;-83
2024/01/30 05:33:57;;;;;;;6.43;4.70;;;5.80;99.90;;;;;;5041448;28;20452;-79
2024/01/30 05:36:26;;;;;;;6.97;4.97;;;5.80;99.90;;;;;;5038511;28;20460;-79
2024/01/30 05:38:54;;;;;;;5.70;5.27;;;5.70;99.90;;;;;;5039089;28;20455;-80
2024/01/30 05:41:22;;;;;;;6.03;4.80;;;5.70;99.90;;;;;;5039544;28;20539;-80
2024/01/30 05:43:50;;;;;;;5.50;4.90;;;5.70;99.90;;;;;;5035603;28;20491;-80
2024/01/30 05:46:18;;;;;;;5.30;4.90;;;5.70;99.90;;;;;;5036542;28;20448;-79
2024/01/30 05:48:51;;;;;;;5.33;4.83;;;5.70;99.90;;;;;;5036820;28;20464;-81
2024/01/30 05:51:19;;;;;;;5.70;4.90;;;5.70;99.90;;;;;;5035407;28;20506;-80
2024/01/30 05:53:47;;;;;;;4.97;4.50;;;5.70;99.90;;;;;;5034828;28;20517;-78
2024/01/30 05:56:16;;;;;;;5.10;4.70;;;5.70;99.90;;;;;;5038414;28;20476;-78
2024/01/30 05:58:44;;;;;;;4.67;4.27;;;5.80;99.90;;;;;;5038240;28;21127;-79
2024/01/30 06:01:12;;;;;;;7.17;5.80;;;5.80;99.90;;;;;;5034900;28;20997;-81
2024/01/30 06:03:40;;;;;;;4.97;4.47;;;5.80;99.90;;;;;;5037017;28;20554;-81
2024/01/30 06:06:10;;;;;;;4.80;4.50;;;5.80;99.90;;;;;;5036985;28;20571;-80
2024/01/30 06:08:38;;;;;;;4.23;3.60;;;5.80;99.90;;;;;;5033312;28;20535;-79
2024/01/30 06:11:06;;;;;;;4.03;3.73;;;5.60;99.90;;;;;;5039491;28;20464;-81
2024/01/30 06:13:34;;;;;;;4.53;3.97;;;5.60;99.90;;;;;;5032518;28;20441;-82
2024/01/30 06:16:03;;;;;;;5.10;4.13;;;5.60;99.90;;;;;;5034564;28;20560;-80
2024/01/30 06:18:31;;;;;;;4.00;3.67;;;5.70;99.90;;;;;;5029473;28;20448;-78
2024/01/30 06:20:59;;;;;;;7.40;3.73;;;5.60;99.90;;;;;;5037099;28;21143;-78
2024/01/30 06:23:28;;;;;;;3.60;3.30;;;5.60;99.90;;;;;;5036601;28;20459;-79
2024/01/30 06:25:57;;;;;;;4.03;3.73;;;5.70;99.90;;;;;;5037816;28;20479;-79
2024/01/30 06:28:25;;;;;;;7.77;4.13;;;5.70;99.90;;;;;;5048561;28;20463;-78
2024/01/30 06:30:53;;;;;;;4.90;4.50;;;5.70;99.90;;;;;;5036531;28;20464;-81
2024/01/30 06:33:21;;;;;;;4.43;4.00;;;5.70;99.90;;;;;;5037929;28;20558;-80
2024/01/30 06:35:49;;;;;;;4.70;4.40;;;5.70;99.90;;;;;;5037921;28;20486;-78
2024/01/30 06:38:17;;;;;;;5.50;5.00;;;5.70;99.90;;;;;;5039935;28;21009;-77
2024/01/30 06:40:47;;;;;;;4.90;4.50;;;5.80;99.90;;;;;;5033169;28;21016;-80
2024/01/30 06:43:15;;;;;;;4.73;4.33;;;5.90;99.90;;;;;;5037933;28;20453;-77
2024/01/30 06:45:44;;;;;;;6.77;6.27;;;5.80;99.90;;;;;;5039521;28;20770;-77
2024/01/30 06:48:12;;;;;;;5.30;4.90;;;5.80;99.90;;;;;;5035618;28;20452;-78
2024/01/30 06:50:40;;;;;;;5.27;4.87;;;5.90;99.90;;;;;;5033881;28;20457;-77
2024/01/30 06:53:08;;;;;;;5.30;4.80;;;5.80;99.90;;;;;;5035831;28;20772;-78
2024/01/30 06:55:36;;;;;;;5.10;4.60;;;5.80;99.90;;;;;;5040938;28;20468;-76
2024/01/30 06:58:06;;;;;;;5.33;4.93;;;5.80;99.90;;;;;;5038203;28;20490;-80
2024/01/30 07:00:34;;;;;;;5.20;4.87;;;5.80;99.90;;;;;;5038629;28;20441;-77
2024/01/30 07:03:02;;;;;;;5.90;5.30;;;5.80;99.90;;;;;;5037474;28;20475;-79
2024/01/30 07:05:31;;;;;;;6.37;5.20;;;5.80;99.90;;;;;;5036121;28;20633;-77
2024/01/30 07:07:59;;;;;;;8.07;5.90;;;5.90;99.90;;;;;;5035383;28;20825;-79
2024/01/30 07:10:27;;;;;;;7.10;5.10;;;5.90;99.90;;;;;;5035395;28;21153;-78
2024/01/30 07:12:55;;;;;;;6.27;5.50;;;5.80;99.90;;;;;;5035681;28;20817;-80
2024/01/30 07:15:25;;;;;;;5.43;5.03;;;5.90;99.90;;;;;;5033229;28;20494;-77
2024/01/30 07:17:53;;;;;;;6.00;5.50;;;5.90;99.90;;;;;;5037505;28;20472;-79
2024/01/30 07:20:21;;;;;;;5.03;4.63;;;5.90;99.90;;;;;;5038515;28;20542;-79
2024/01/30 07:22:49;;;;;;;5.40;5.00;;;5.90;99.90;;;;;;5037008;28;20565;-82
2024/01/30 07:25:18;;;;;;;6.00;5.40;;;6.00;99.90;;;;;;5037871;28;20456;-77
2024/01/30 07:27:46;;;;;;;4.90;4.50;;;6.10;99.90;;;;;;5030665;28;20464;-81
2024/01/30 07:30:16;;;;;;;6.10;4.70;;;6.20;99.90;;;;;;5036903;28;20459;-78
2024/01/30 07:32:46;;;;;;;5.57;4.73;;;6.20;99.90;;;;;;5035510;28;20511;-81
2024/01/30 07:35:15;;;;;;;3.97;3.77;;;6.30;99.90;;;;;;5040092;28;20456;-80
2024/01/30 07:37:43;;;;;;;4.73;4.40;;;6.30;99.90;;;;;;5036684;28;21250;-78
2024/01/30 07:40:12;;;;;;;6.80;4.47;;;6.30;99.90;;;;;;5036446;28;20467;-78
2024/01/30 07:42:40;;;;;;;5.53;5.10;;;6.30;99.90;;;;;;5032479;28;21095;-79
2024/01/30 07:45:09;;;;;;;4.90;4.50;;;6.30;99.90;;;;;;5033774;28;20456;-79
2024/01/30 07:47:37;;;;;;;5.13;4.63;;;6.40;99.90;;;;;;5034952;28;20440;-77
2024/01/30 07:50:08;;;;;;;5.30;4.50;;;6.50;99.90;;;;;;5035037;28;21016;-77
2024/01/30 07:52:37;;;;;;;6.50;5.50;;;6.50;99.90;;;;;;5040016;28;20502;-79
2024/01/30 07:55:04;;;;;;;11.13;5.13;;;6.50;99.90;;;;;;5035624;28;20448;-78
2024/01/30 07:57:32;;;;;;;6.10;4.63;;;6.50;99.90;;;;;;5034467;28;20475;-78
2024/01/30 08:00:01;;;;;;;4.50;4.10;;;6.60;99.90;;;;;;5037917;28;20459;-79
2024/01/30 08:02:29;;;;;;;4.60;4.20;;;6.70;99.90;;;;;;5036412;28;21009;-81
2024/01/30 08:04:57;;;;;;;5.17;4.77;;;6.90;99.90;;;;;;5041041;28;20460;-79
2024/01/30 08:07:29;;;;;;;5.40;4.90;;;7.00;99.90;;;;;;5039037;28;20463;-82
2024/01/30 08:09:57;;;;;;;9.53;7.40;;;7.20;99.90;;;;;;5034345;28;20827;-80
2024/01/30 08:12:25;;;;;;;11.13;8.60;;;7.40;99.90;;;;;;5037427;28;20480;-79
2024/01/30 08:14:54;;;;;;;20.70;11.83;;;7.50;99.90;;;;;;5034107;28;20459;-78
2024/01/30 08:17:22;;;;;;;16.70;10.10;;;7.70;99.90;;;;;;5033369;28;20542;-81
2024/01/30 08:19:50;;;;;;;11.67;8.50;;;7.80;99.90;;;;;;5033160;28;20451;-78
2024/01/30 08:22:19;;;;;;;9.63;6.80;;;8.00;99.90;;;;;;5038953;28;20556;-79
2024/01/30 08:24:48;;;;;;;9.40;7.80;;;8.10;99.90;;;;;;5039678;28;20452;-81
2024/01/30 08:27:17;;;;;;;12.70;7.70;;;8.30;99.90;;;;;;5041616;28;20456;-81
2024/01/30 08:29:45;;;;;;;16.77;11.27;;;8.40;99.90;;;;;;5038205;28;20487;-80
2024/01/30 08:32:13;;;;;;;15.77;8.20;;;8.60;99.90;;;;;;5040335;28;20799;-79
2024/01/30 08:34:41;;;;;;;6.73;5.70;;;8.80;99.90;;;;;;5041439;28;20562;-78
2024/01/30 08:37:10;;;;;;;4.50;4.13;;;8.80;99.90;;;;;;5043852;28;20472;-78
2024/01/30 08:39:38;;;;;;;5.30;4.90;;;8.90;99.90;;;;;;5038125;28;20464;-79
2024/01/30 08:42:08;;;;;;;5.67;5.13;;;8.80;99.90;;;;;;5041204;28;20560;-79
2024/01/30 08:44:36;;;;;;;5.43;4.93;;;8.80;99.90;;;;;;5038764;28;20488;-82
2024/01/30 08:47:05;;;;;;;4.77;4.40;;;8.70;99.90;;;;;;5036255;28;20973;-81
2024/01/30 08:49:33;;;;;;;5.40;4.87;;;8.80;99.90;;;;;;5041552;28;20542;-81
2024/01/30 08:52:02;;;;;;;5.60;5.10;;;8.80;99.90;;;;;;5039832;28;20518;-80
2024/01/30 08:54:30;;;;;;;5.60;5.13;;;8.90;99.90;;;;;;5043403;28;20459;-79
2024/01/30 08:56:58;;;;;;;5.63;4.53;;;8.90;99.90;;;;;;5039506;28;20456;-80
2024/01/30 08:59:28;;;;;;;5.50;5.00;;;9.00;99.90;;;;;;5039126;28;20453;-79
2024/01/30 09:01:58;;;;;;;5.40;4.90;;;9.10;99.90;;;;;;5035180;28;20222;-79
2024/01/30 09:04:39;;;;;;;4.90;4.40;;;9.40;99.90;;;;;;5040393;28;20539;-79
2024/01/30 09:07:09;;;;;;;5.10;4.43;;;9.60;99.90;;;;;;5040014;28;20452;-80
2024/01/30 09:09:40;;;;;;;5.60;5.00;;;9.70;99.90;;;;;;5041392;28;20448;-78
2024/01/30 09:12:09;;;;;;;5.20;4.80;;;9.80;99.90;;;;;;5039799;28;20476;-80
2024/01/30 09:14:40;;;;;;;5.07;4.67;;;9.90;99.90;;;;;;5036304;28;20448;-78
2024/01/30 09:17:08;;;;;;;4.27;4.00;;;10.10;99.90;;;;;;5034517;28;20575;-80
2024/01/30 09:19:37;;;;;;;4.60;4.30;;;10.10;99.90;;;;;;5038966;28;20547;-79
2024/01/30 09:22:06;;;;;;;4.50;4.20;;;10.10;99.90;;;;;;5039024;28;20925;-78
2024/01/30 09:24:34;;;;;;;5.13;4.67;;;10.10;99.90;;;;;;5037872;28;20531;-81
2024/01/30 09:27:02;;;;;;;5.50;4.57;;;10.20;99.90;;;;;;5037808;28;20555;-81
2024/01/30 09:29:30;;;;;;;5.33;4.83;;;10.30;99.90;;;;;;5038172;28;20559;-81
2024/01/30 09:32:00;;;;;;;4.67;4.27;;;10.30;99.90;;;;;;5037110;28;20476;-79
2024/01/30 09:34:28;;;;;;;5.20;4.73;;;10.30;99.90;;;;;;5040166;28;20524;-83
2024/01/30 09:36:57;;;;;;;4.50;4.20;;;10.30;99.90;;;;;;5037126;28;20544;-80
2024/01/30 09:39:25;;;;;;;5.00;4.70;;;10.40;99.90;;;;;;5040281;28;20557;-80
2024/01/30 09:42:06;;;;;;;4.30;4.00;;;10.50;99.90;;;;;;5040214;28;20482;-80
2024/01/30 09:44:36;;;;;;;5.97;5.47;;;10.60;99.90;;;;;;5039553;28;20464;-80
2024/01/30 09:47:06;;;;;;;9.67;6.07;;;10.60;99.90;;;;;;5038854;28;20981;-81
2024/01/30 09:49:35;;;;;;;8.33;6.40;;;10.70;99.90;;;;;;5039269;28;20462;-79
2024/01/30 09:52:06;;;;;;;5.63;5.13;;;10.70;99.90;;;;;;5040984;28;20461;-79
2024/01/30 09:54:36;;;;;;;5.80;5.30;;;10.70;99.90;;;;;;5040797;28;20436;-80
2024/01/30 09:57:05;;;;;;;5.70;5.30;;;10.70;99.90;;;;;;5038639;28;20546;-79
2024/01/30 09:59:33;;;;;;;5.50;4.90;;;10.70;99.90;;;;;;5043078;28;20484;-79
2024/01/30 10:02:04;;;;;;;5.03;4.57;;;10.80;99.90;;;;;;5036275;28;20483;-81
2024/01/30 10:04:33;;;;;;;6.03;4.07;;;10.80;99.90;;;;;;5039180;28;20510;-80
2024/01/30 10:07:03;;;;;;;4.93;4.20;;;10.90;99.90;;;;;;5038447;28;21076;-79
2024/01/30 10:09:34;;;;;;;4.83;4.47;;;11.00;99.90;;;;;;5037060;28;20558;-80
2024/01/30 10:12:03;;;;;;;5.47;4.40;;;11.10;98.80;;;;;;5040304;28;20501;-80
2024/01/30 10:14:31;;;;;;;3.87;3.53;;;11.30;99.10;;;;;;5038693;28;21063;-78
2024/01/30 10:16:59;;;;;;;4.00;3.80;;;11.30;97.80;;;;;;5035899;28;21540;-82
2024/01/30 10:19:28;;;;;;;8.00;4.10;;;11.30;96.50;;;;;;5038562;28;20482;-79
2024/01/30 10:21:57;;;;;;;4.17;3.87;;;11.30;96.50;;;;;;5039190;28;20595;-81
2024/01/30 10:24:26;;;;;;;4.17;3.80;;;11.30;96.60;;;;;;5040153;28;20820;-79
2024/01/30 10:26:54;;;;;;;4.53;3.90;;;11.30;96.60;;;;;;5037646;28;20453;-78
2024/01/30 10:29:23;;;;;;;5.13;4.40;;;11.30;96.40;;;;;;5038916;28;20463;-80
2024/01/30 10:32:00;;;;;;;5.67;4.23;;;11.30;96.70;;;;;;5037681;28;20494;-80
2024/01/30 10:34:28;;;;;;;4.90;4.50;;;11.40;96.50;;;;;;5037085;28;20444;-80
2024/01/30 10:37:12;;;;;;;3.90;3.60;;;11.40;96.80;;;;;;5035381;28;20455;-80
2024/01/30 10:39:41;;;;;;;4.10;3.80;;;11.50;95.20;;;;;;5034656;28;20865;-81
2024/01/30 10:42:15;;;;;;;5.20;4.70;;;11.60;96.60;;;;;;5034097;28;20464;-81
2024/01/30 10:44:49;;;;;;;8.53;4.23;;;11.70;96.70;;;;;;5038838;28;20829;-81
2024/01/30 10:47:22;;;;;;;5.90;4.00;;;12.00;96.90;;;;;;5037380;28;20452;-79
2024/01/30 10:49:52;;;;;;;4.60;4.20;;;12.00;97.20;;;;;;5036143;28;20448;-80
2024/01/30 10:52:21;;;;;;;9.70;4.80;;;12.40;97.10;;;;;;5036422;28;20499;-82
2024/01/30 10:54:52;;;;;;;5.73;5.23;;;12.60;98.90;;;;;;5036642;28;20545;-80
2024/01/30 10:57:20;;;;;;;5.57;4.97;;;13.10;99.90;;;;;;5032985;28;20509;-79
2024/01/30 10:59:49;;;;;;;5.53;4.50;;;13.40;99.90;;;;;;5036149;28;20488;-80
2024/01/30 11:02:18;;;;;;;3.90;3.47;;;13.60;99.90;;;;;;5036764;28;20480;-79
2024/01/30 11:04:47;;;;;;;4.93;3.67;;;13.50;97.80;;;;;;5039538;28;20481;-81
2024/01/30 11:07:17;;;;;;;6.77;3.20;;;13.30;97.60;;;;;;5037200;28;20448;-81
2024/01/30 11:09:54;;;;;;;5.23;3.00;;;13.20;97.00;;;;;;5054137;28;20989;-80
2024/01/30 11:12:26;;;;;;;3.70;2.50;;;13.00;95.30;;;;;;5035017;28;21049;-81
2024/01/30 11:15:07;;;;;;;4.87;2.73;;;12.90;94.70;;;;;;5037846;28;21375;-81
2024/01/30 11:17:46;;;;;;;3.00;2.80;;;12.80;85.40;;;;;;5036268;28;20458;-79
2024/01/30 11:20:16;;;;;;;3.50;2.60;;;12.80;93.90;;;;;;5031708;28;20479;-82
2024/01/30 11:22:47;;;;;;;3.33;2.90;;;12.70;93.50;;;;;;5034155;28;20476;-78
2024/01/30 11:25:18;;;;;;;3.17;2.87;;;12.60;94.20;;;;;;5034756;28;20463;-80
2024/01/30 11:27:47;;;;;;;3.10;2.47;;;12.50;93.10;;;;;;5035690;28;20459;-81
2024/01/30 11:30:25;;;;;;;4.23;2.37;;;12.60;93.20;;;;;;5033085;28;20491;-79
2024/01/30 11:33:01;;;;;;;2.43;2.30;;;12.60;94.10;;;;;;5036985;28;20476;-81
2024/01/30 11:35:32;;;;;;;3.43;3.13;;;12.60;93.30;;;;;;5035389;28;20468;-79
2024/01/30 11:38:02;;;;;;;3.20;2.57;;;12.70;94.50;;;;;;5034601;28;20965;-78
2024/01/30 11:40:32;;;;;;;3.37;3.00;;;12.60;93.00;;;;;;5035762;28;20477;-78
2024/01/30 11:43:03;;;;;;;2.70;2.50;;;12.50;93.80;;;;;;5035676;28;21155;-78
2024/01/30 11:45:31;;;;;;;3.27;2.97;;;12.50;93.10;;;;;;5031441;28;20455;-79
2024/01/30 11:48:01;;;;;;;3.13;2.90;;;12.40;92.20;;;;;;5032680;28;20455;-78
2024/01/30 11:50:29;;;;;;;2.80;2.60;;;12.40;92.90;;;;;;5035169;28;20452;-79
2024/01/30 11:52:58;;;;;;;2.80;2.60;;;12.40;92.70;;;;;;5030034;28;21037;-81
2024/01/30 11:55:27;;;;;;;3.33;3.13;;;12.40;92.00;;;;;;5035378;28;20926;-83
2024/01/30 11:58:02;;;;;;;2.83;2.63;;;12.40;92.50;;;;;;5037118;28;20446;-79
2024/01/30 12:00:33;;;;;;;3.30;3.00;;;12.30;92.30;;;;;;5032486;28;20664;-81
2024/01/30 12:03:01;;;;;;;3.10;2.90;;;12.30;93.20;;;;;;5029574;28;20479;-80
2024/01/30 12:05:30;;;;;;;3.03;2.83;;;12.30;92.90;;;;;;5032474;28;20472;-81
2024/01/30 12:07:59;;;;;;;3.30;3.10;;;12.30;93.00;;;;;;5030740;28;20570;-80
2024/01/30 12:10:29;;;;;;;3.00;2.77;;;12.30;93.50;;;;;;5037868;28;20450;-83
2024/01/30 12:12:59;;;;;;;2.90;2.70;;;12.40;93.50;;;;;;5032696;28;20484;-82
2024/01/30 12:15:28;;;;;;;3.77;2.90;;;12.40;92.70;;;;;;5034344;28;20563;-82
2024/01/30 12:18:05;;;;;;;2.50;2.30;;;12.50;93.30;;;;;;5033518;28;20933;-79
2024/01/30 12:20:35;;;;;;;3.30;3.00;;;12.50;93.70;;;;;;5034133;28;20476;-78
2024/01/30 12:23:03;;;;;;;3.63;3.27;;;12.50;94.70;;;;;;5038376;28;20456;-78
2024/01/30 12:25:32;;;;;;;2.57;2.47;;;12.50;93.20;;;;;;5033301;28;20457;-78
2024/01/30 12:28:00;;;;;;;4.10;2.60;;;12.50;93.70;;;;;;5033201;28;20455;-78
2024/01/30 12:30:30;;;;;;;2.73;2.43;;;12.60;93.80;;;;;;5030377;28;20452;-78
2024/01/30 12:32:59;;;;;;;4.97;2.83;;;12.70;95.80;;;;;;5036282;28;20480;-77
2024/01/30 12:35:27;;;;;;;3.50;2.70;;;12.70;95.60;;;;;;5039009;28;20650;-82
2024/01/30 12:38:00;;;;;;;2.90;2.70;;;12.80;95.70;;;;;;5036956;28;20455;-78
2024/01/30 12:40:29;;;;;;;3.87;2.40;;;12.90;95.90;;;;;;5041506;28;20491;-79
2024/01/30 12:42:57;;;;;;;3.00;2.33;;;12.90;95.80;;;;;;5039273;28;21111;-78
2024/01/30 12:45:26;;;;;;;2.67;2.50;;;12.90;95.20;;;;;;5040511;28;20988;-79
2024/01/30 12:47:56;;;;;;;2.70;2.50;;;12.90;96.00;;;;;;5039480;28;20462;-80
2024/01/30 12:50:24;;;;;;;3.67;2.67;;;13.00;97.00;;;;;;5038568;28;20653;-80
2024/01/30 12:52:53;;;;;;;3.03;2.73;;;13.00;96.60;;;;;;5038487;28;20477;-78
2024/01/30 12:55:21;;;;;;;2.73;2.57;;;13.10;96.90;;;;;;5040177;28;20488;-80
2024/01/30 12:57:50;;;;;;;2.50;2.30;;;13.10;97.30;;;;;;5039922;28;20466;-80
2024/01/30 13:00:19;;;;;;;2.87;2.67;;;13.20;97.60;;;;;;5041219;28;20483;-83
2024/01/30 13:02:48;;;;;;;3.10;2.90;;;13.30;98.60;;;;;;5056757;28;21073;-80